Terminal Aerodrome Forecast
Issued by NWS Portland, OR

Home | Current Version | Previous Version | Text Only | Print | Product List | Glossary On
Versions: 1 2 3 4 5 6 7 8 9 10 11 12 13 14 15 16 17 18 19 20 21 22 23 24 25 26 27 28 29 30 31 32 33 34 35 36 37 38 39 40 41
000
FTUS46 KPQR 271756 CCA
TAFEUG
TAF COR
KEUG 271756Z 2718/2818 21008KT 6SM -RA BR SCT025 OVC040
     FM272000 20011KT 6SM -RA BR SCT010 BKN015 OVC030
     FM272300 19009KT P6SM -SHRA BKN030 OVC040
     FM280400 20008KT P6SM -SHRA SCT015 BKN040=

USA.gov is the U.S. government's official web portal to all federal, state and local government web resources and services.